sensor_id;sensor_type;location;lat;lon;timestamp;P1;durP1;ratioP1;P2;durP2;ratioP2
32228;SDS011;18717;48.034;11.186;2023-01-19T00:00:55;15.98;;;11.90;;
32228;SDS011;18717;48.034;11.186;2023-01-19T00:03:23;19.30;;;12.13;;
32228;SDS011;18717;48.034;11.186;2023-01-19T00:05:51;15.73;;;11.02;;
32228;SDS011;18717;48.034;11.186;2023-01-19T00:08:19;15.45;;;11.88;;
32228;SDS011;18717;48.034;11.186;2023-01-19T00:10:48;17.73;;;11.75;;
32228;SDS011;18717;48.034;11.186;2023-01-19T00:13:17;16.25;;;12.05;;
32228;SDS011;18717;48.034;11.186;2023-01-19T00:15:47;15.93;;;11.05;;
32228;SDS011;18717;48.034;11.186;2023-01-19T00:18:15;13.95;;;11.50;;
32228;SDS011;18717;48.034;11.186;2023-01-19T00:20:43;14.15;;;10.63;;
32228;SDS011;18717;48.034;11.186;2023-01-19T00:23:11;14.65;;;10.93;;
32228;SDS011;18717;48.034;11.186;2023-01-19T00:25:40;19.80;;;10.85;;
32228;SDS011;18717;48.034;11.186;2023-01-19T00:28:09;16.75;;;10.95;;
32228;SDS011;18717;48.034;11.186;2023-01-19T00:30:38;16.50;;;11.50;;
32228;SDS011;18717;48.034;11.186;2023-01-19T00:33:08;16.00;;;10.15;;
32228;SDS011;18717;48.034;11.186;2023-01-19T00:35:37;13.68;;;12.27;;
32228;SDS011;18717;48.034;11.186;2023-01-19T00:38:05;16.27;;;11.65;;
32228;SDS011;18717;48.034;11.186;2023-01-19T00:40:33;13.70;;;11.35;;
32228;SDS011;18717;48.034;11.186;2023-01-19T00:43:01;13.25;;;10.40;;
32228;SDS011;18717;48.034;11.186;2023-01-19T00:45:29;15.32;;;11.27;;
32228;SDS011;18717;48.034;11.186;2023-01-19T00:47:57;12.35;;;10.75;;
32228;SDS011;18717;48.034;11.186;2023-01-19T00:50:27;15.80;;;11.95;;
32228;SDS011;18717;48.034;11.186;2023-01-19T00:52:57;16.75;;;11.43;;
32228;SDS011;18717;48.034;11.186;2023-01-19T00:55:26;13.75;;;10.18;;
32228;SDS011;18717;48.034;11.186;2023-01-19T00:57:55;13.60;;;11.23;;
32228;SDS011;18717;48.034;11.186;2023-01-19T01:00:23;15.70;;;11.30;;
32228;SDS011;18717;48.034;11.186;2023-01-19T01:02:52;14.40;;;11.30;;
32228;SDS011;18717;48.034;11.186;2023-01-19T01:05:21;16.17;;;10.13;;
32228;SDS011;18717;48.034;11.186;2023-01-19T01:07:50;14.70;;;9.27;;
32228;SDS011;18717;48.034;11.186;2023-01-19T01:10:19;15.02;;;10.52;;
32228;SDS011;18717;48.034;11.186;2023-01-19T01:12:48;14.50;;;9.32;;
32228;SDS011;18717;48.034;11.186;2023-01-19T01:15:23;12.90;;;10.88;;
32228;SDS011;18717;48.034;11.186;2023-01-19T01:17:53;13.02;;;9.27;;
32228;SDS011;18717;48.034;11.186;2023-01-19T01:20:21;12.40;;;9.93;;
32228;SDS011;18717;48.034;11.186;2023-01-19T01:22:52;15.60;;;9.88;;
32228;SDS011;18717;48.034;11.186;2023-01-19T01:25:21;11.70;;;9.85;;
32228;SDS011;18717;48.034;11.186;2023-01-19T01:27:50;10.73;;;9.13;;
32228;SDS011;18717;48.034;11.186;2023-01-19T01:30:18;14.05;;;9.45;;
32228;SDS011;18717;48.034;11.186;2023-01-19T01:32:47;12.73;;;9.65;;
32228;SDS011;18717;48.034;11.186;2023-01-19T01:35:15;15.30;;;9.75;;
32228;SDS011;18717;48.034;11.186;2023-01-19T01:37:43;12.70;;;9.43;;
32228;SDS011;18717;48.034;11.186;2023-01-19T01:40:13;10.60;;;9.32;;
32228;SDS011;18717;48.034;11.186;2023-01-19T01:45:20;9.65;;;8.75;;
32228;SDS011;18717;48.034;11.186;2023-01-19T01:47:56;13.60;;;9.38;;
32228;SDS011;18717;48.034;11.186;2023-01-19T01:50:27;18.38;;;10.93;;
32228;SDS011;18717;48.034;11.186;2023-01-19T01:52:57;18.08;;;10.32;;
32228;SDS011;18717;48.034;11.186;2023-01-19T01:55:35;17.23;;;11.23;;
32228;SDS011;18717;48.034;11.186;2023-01-19T01:58:05;14.77;;;10.50;;
32228;SDS011;18717;48.034;11.186;2023-01-19T02:00:35;16.70;;;9.27;;
32228;SDS011;18717;48.034;11.186;2023-01-19T02:03:17;15.00;;;11.00;;
32228;SDS011;18717;48.034;11.186;2023-01-19T02:05:45;14.45;;;10.32;;
32228;SDS011;18717;48.034;11.186;2023-01-19T02:08:14;13.48;;;11.00;;
32228;SDS011;18717;48.034;11.186;2023-01-19T02:11:03;12.75;;;9.80;;
32228;SDS011;18717;48.034;11.186;2023-01-19T02:13:50;15.15;;;10.43;;
32228;SDS011;18717;48.034;11.186;2023-01-19T02:16:18;11.98;;;9.88;;
32228;SDS011;18717;48.034;11.186;2023-01-19T02:18:46;15.75;;;12.40;;
32228;SDS011;18717;48.034;11.186;2023-01-19T02:21:16;12.77;;;10.30;;
32228;SDS011;18717;48.034;11.186;2023-01-19T02:23:48;14.52;;;10.57;;
32228;SDS011;18717;48.034;11.186;2023-01-19T02:26:18;13.93;;;11.23;;
32228;SDS011;18717;48.034;11.186;2023-01-19T02:28:48;16.63;;;11.85;;
32228;SDS011;18717;48.034;11.186;2023-01-19T02:31:18;16.35;;;11.50;;
32228;SDS011;18717;48.034;11.186;2023-01-19T02:33:46;17.48;;;11.77;;
32228;SDS011;18717;48.034;11.186;2023-01-19T02:36:14;19.02;;;13.13;;
32228;SDS011;18717;48.034;11.186;2023-01-19T02:38:43;17.70;;;11.88;;
32228;SDS011;18717;48.034;11.186;2023-01-19T02:41:15;20.25;;;12.75;;
32228;SDS011;18717;48.034;11.186;2023-01-19T02:43:46;15.68;;;12.95;;
32228;SDS011;18717;48.034;11.186;2023-01-19T02:46:15;15.45;;;11.82;;
32228;SDS011;18717;48.034;11.186;2023-01-19T02:48:43;15.65;;;13.10;;
32228;SDS011;18717;48.034;11.186;2023-01-19T02:51:12;20.15;;;12.57;;
32228;SDS011;18717;48.034;11.186;2023-01-19T02:53:51;21.45;;;13.13;;
32228;SDS011;18717;48.034;11.186;2023-01-19T02:56:40;16.23;;;11.48;;
32228;SDS011;18717;48.034;11.186;2023-01-19T02:59:17;15.57;;;12.35;;
32228;SDS011;18717;48.034;11.186;2023-01-19T03:01:59;18.38;;;12.68;;
32228;SDS011;18717;48.034;11.186;2023-01-19T03:04:37;13.20;;;11.60;;
32228;SDS011;18717;48.034;11.186;2023-01-19T03:07:12;15.48;;;11.68;;
32228;SDS011;18717;48.034;11.186;2023-01-19T03:09:41;19.52;;;12.00;;
32228;SDS011;18717;48.034;11.186;2023-01-19T03:12:20;18.33;;;13.23;;
32228;SDS011;18717;48.034;11.186;2023-01-19T03:14:53;14.15;;;12.68;;
32228;SDS011;18717;48.034;11.186;2023-01-19T03:17:24;16.55;;;12.00;;
32228;SDS011;18717;48.034;11.186;2023-01-19T03:19:54;16.40;;;13.15;;
32228;SDS011;18717;48.034;11.186;2023-01-19T03:22:25;20.27;;;13.13;;
32228;SDS011;18717;48.034;11.186;2023-01-19T03:24:54;16.15;;;12.43;;
32228;SDS011;18717;48.034;11.186;2023-01-19T03:27:28;22.80;;;14.48;;
32228;SDS011;18717;48.034;11.186;2023-01-19T03:29:58;11.67;;;10.23;;
32228;SDS011;18717;48.034;11.186;2023-01-19T03:32:28;19.90;;;13.82;;
32228;SDS011;18717;48.034;11.186;2023-01-19T03:35:01;18.50;;;13.98;;
32228;SDS011;18717;48.034;11.186;2023-01-19T03:37:30;21.33;;;12.73;;
32228;SDS011;18717;48.034;11.186;2023-01-19T03:40:00;19.25;;;12.93;;
32228;SDS011;18717;48.034;11.186;2023-01-19T03:42:30;22.73;;;13.63;;
32228;SDS011;18717;48.034;11.186;2023-01-19T03:44:58;21.58;;;16.33;;
32228;SDS011;18717;48.034;11.186;2023-01-19T03:47:26;16.50;;;13.60;;
32228;SDS011;18717;48.034;11.186;2023-01-19T03:49:55;17.73;;;14.13;;
32228;SDS011;18717;48.034;11.186;2023-01-19T03:52:26;15.80;;;12.90;;
32228;SDS011;18717;48.034;11.186;2023-01-19T03:54:55;26.75;;;15.10;;
32228;SDS011;18717;48.034;11.186;2023-01-19T03:57:23;19.40;;;13.05;;
32228;SDS011;18717;48.034;11.186;2023-01-19T03:59:53;19.80;;;14.32;;
32228;SDS011;18717;48.034;11.186;2023-01-19T04:02:21;21.40;;;13.48;;
32228;SDS011;18717;48.034;11.186;2023-01-19T04:04:49;18.27;;;13.27;;
32228;SDS011;18717;48.034;11.186;2023-01-19T04:07:17;21.02;;;14.10;;
32228;SDS011;18717;48.034;11.186;2023-01-19T04:09:45;20.33;;;13.48;;
32228;SDS011;18717;48.034;11.186;2023-01-19T04:12:13;22.45;;;13.43;;
32228;SDS011;18717;48.034;11.186;2023-01-19T04:14:41;19.45;;;13.68;;
32228;SDS011;18717;48.034;11.186;2023-01-19T04:17:10;18.75;;;13.20;;
32228;SDS011;18717;48.034;11.186;2023-01-19T04:19:39;23.65;;;14.07;;
32228;SDS011;18717;48.034;11.186;2023-01-19T04:22:07;22.05;;;14.80;;
32228;SDS011;18717;48.034;11.186;2023-01-19T04:24:35;23.90;;;14.30;;
32228;SDS011;18717;48.034;11.186;2023-01-19T04:27:03;23.85;;;14.80;;
32228;SDS011;18717;48.034;11.186;2023-01-19T04:29:31;18.98;;;13.73;;
32228;SDS011;18717;48.034;11.186;2023-01-19T04:31:59;18.67;;;14.18;;
32228;SDS011;18717;48.034;11.186;2023-01-19T04:34:28;21.02;;;14.45;;
32228;SDS011;18717;48.034;11.186;2023-01-19T04:36:56;19.20;;;13.65;;
32228;SDS011;18717;48.034;11.186;2023-01-19T04:39:24;20.77;;;14.18;;
32228;SDS011;18717;48.034;11.186;2023-01-19T04:41:53;24.65;;;14.77;;
32228;SDS011;18717;48.034;11.186;2023-01-19T04:44:22;24.77;;;15.77;;
32228;SDS011;18717;48.034;11.186;2023-01-19T04:46:50;26.95;;;15.73;;
32228;SDS011;18717;48.034;11.186;2023-01-19T04:49:18;24.40;;;15.00;;
32228;SDS011;18717;48.034;11.186;2023-01-19T04:51:48;20.90;;;14.98;;
32228;SDS011;18717;48.034;11.186;2023-01-19T04:54:16;24.85;;;14.73;;
32228;SDS011;18717;48.034;11.186;2023-01-19T04:56:44;21.58;;;14.02;;
32228;SDS011;18717;48.034;11.186;2023-01-19T04:59:12;27.15;;;14.88;;
32228;SDS011;18717;48.034;11.186;2023-01-19T05:01:39;24.48;;;14.55;;
32228;SDS011;18717;48.034;11.186;2023-01-19T05:04:08;21.20;;;14.98;;
32228;SDS011;18717;48.034;11.186;2023-01-19T05:06:36;20.02;;;14.93;;
32228;SDS011;18717;48.034;11.186;2023-01-19T05:09:05;19.77;;;14.45;;
32228;SDS011;18717;48.034;11.186;2023-01-19T05:11:34;20.77;;;14.93;;
32228;SDS011;18717;48.034;11.186;2023-01-19T05:14:02;23.13;;;15.07;;
32228;SDS011;18717;48.034;11.186;2023-01-19T05:16:30;21.52;;;14.30;;
32228;SDS011;18717;48.034;11.186;2023-01-19T05:18:58;25.13;;;15.27;;
32228;SDS011;18717;48.034;11.186;2023-01-19T05:21:26;23.40;;;14.63;;
32228;SDS011;18717;48.034;11.186;2023-01-19T05:23:54;20.92;;;14.45;;
32228;SDS011;18717;48.034;11.186;2023-01-19T05:29:19;22.05;;;15.63;;
32228;SDS011;18717;48.034;11.186;2023-01-19T05:43:10;18.95;;;13.57;;
32228;SDS011;18717;48.034;11.186;2023-01-19T05:45:40;18.70;;;11.13;;
32228;SDS011;18717;48.034;11.186;2023-01-19T05:48:08;24.08;;;14.95;;
32228;SDS011;18717;48.034;11.186;2023-01-19T05:50:36;23.30;;;14.68;;
32228;SDS011;18717;48.034;11.186;2023-01-19T05:53:04;19.58;;;13.65;;
32228;SDS011;18717;48.034;11.186;2023-01-19T05:55:33;18.85;;;12.98;;
32228;SDS011;18717;48.034;11.186;2023-01-19T05:58:01;18.98;;;14.27;;
32228;SDS011;18717;48.034;11.186;2023-01-19T06:00:31;22.75;;;13.93;;
32228;SDS011;18717;48.034;11.186;2023-01-19T06:02:59;20.52;;;14.45;;
32228;SDS011;18717;48.034;11.186;2023-01-19T06:05:28;22.73;;;13.45;;
32228;SDS011;18717;48.034;11.186;2023-01-19T06:07:56;23.48;;;13.80;;
32228;SDS011;18717;48.034;11.186;2023-01-19T06:10:24;19.48;;;13.02;;
32228;SDS011;18717;48.034;11.186;2023-01-19T06:12:52;19.30;;;14.80;;
32228;SDS011;18717;48.034;11.186;2023-01-19T06:15:21;21.77;;;13.95;;
32228;SDS011;18717;48.034;11.186;2023-01-19T06:17:51;22.05;;;14.13;;
32228;SDS011;18717;48.034;11.186;2023-01-19T06:20:20;22.02;;;13.73;;
32228;SDS011;18717;48.034;11.186;2023-01-19T06:22:48;24.42;;;14.13;;
32228;SDS011;18717;48.034;11.186;2023-01-19T06:25:16;21.63;;;15.18;;
32228;SDS011;18717;48.034;11.186;2023-01-19T06:27:44;22.35;;;13.65;;
32228;SDS011;18717;48.034;11.186;2023-01-19T06:30:12;17.33;;;13.27;;
32228;SDS011;18717;48.034;11.186;2023-01-19T06:32:40;17.83;;;13.25;;
32228;SDS011;18717;48.034;11.186;2023-01-19T06:35:10;23.63;;;13.70;;
32228;SDS011;18717;48.034;11.186;2023-01-19T06:37:38;22.52;;;14.10;;
32228;SDS011;18717;48.034;11.186;2023-01-19T06:40:06;17.98;;;13.15;;
32228;SDS011;18717;48.034;11.186;2023-01-19T06:42:35;19.40;;;12.55;;
32228;SDS011;18717;48.034;11.186;2023-01-19T06:45:03;20.20;;;12.38;;
32228;SDS011;18717;48.034;11.186;2023-01-19T06:47:32;21.50;;;13.70;;
32228;SDS011;18717;48.034;11.186;2023-01-19T06:50:00;24.35;;;14.55;;
32228;SDS011;18717;48.034;11.186;2023-01-19T06:52:30;19.17;;;13.88;;
32228;SDS011;18717;48.034;11.186;2023-01-19T06:54:58;23.17;;;14.30;;
32228;SDS011;18717;48.034;11.186;2023-01-19T06:57:26;22.33;;;13.35;;
32228;SDS011;18717;48.034;11.186;2023-01-19T06:59:55;22.80;;;14.75;;
32228;SDS011;18717;48.034;11.186;2023-01-19T07:02:26;12.82;;;9.98;;
32228;SDS011;18717;48.034;11.186;2023-01-19T07:04:54;22.48;;;14.90;;
32228;SDS011;18717;48.034;11.186;2023-01-19T07:07:22;21.25;;;12.63;;
32228;SDS011;18717;48.034;11.186;2023-01-19T07:09:52;17.77;;;12.20;;
32228;SDS011;18717;48.034;11.186;2023-01-19T07:12:20;25.25;;;13.85;;
32228;SDS011;18717;48.034;11.186;2023-01-19T07:14:49;21.17;;;13.10;;
32228;SDS011;18717;48.034;11.186;2023-01-19T07:17:18;21.45;;;12.80;;
32228;SDS011;18717;48.034;11.186;2023-01-19T07:23:32;18.98;;;13.10;;
32228;SDS011;18717;48.034;11.186;2023-01-19T07:26:02;18.80;;;13.27;;
32228;SDS011;18717;48.034;11.186;2023-01-19T07:28:31;19.90;;;13.48;;
32228;SDS011;18717;48.034;11.186;2023-01-19T07:30:59;23.35;;;13.02;;
32228;SDS011;18717;48.034;11.186;2023-01-19T07:33:27;19.50;;;13.52;;
32228;SDS011;18717;48.034;11.186;2023-01-19T07:35:55;20.45;;;12.52;;
32228;SDS011;18717;48.034;11.186;2023-01-19T07:38:23;18.25;;;13.10;;
32228;SDS011;18717;48.034;11.186;2023-01-19T07:40:58;17.90;;;13.25;;
32228;SDS011;18717;48.034;11.186;2023-01-19T07:43:29;17.65;;;12.40;;
32228;SDS011;18717;48.034;11.186;2023-01-19T07:45:57;19.13;;;12.35;;
32228;SDS011;18717;48.034;11.186;2023-01-19T07:48:25;19.00;;;13.65;;
32228;SDS011;18717;48.034;11.186;2023-01-19T07:50:58;16.05;;;12.65;;
32228;SDS011;18717;48.034;11.186;2023-01-19T07:53:27;22.85;;;13.35;;
32228;SDS011;18717;48.034;11.186;2023-01-19T07:55:55;18.30;;;11.73;;
32228;SDS011;18717;48.034;11.186;2023-01-19T07:58:24;20.33;;;13.68;;
32228;SDS011;18717;48.034;11.186;2023-01-19T08:00:53;23.65;;;13.70;;
32228;SDS011;18717;48.034;11.186;2023-01-19T08:03:21;26.75;;;14.73;;
32228;SDS011;18717;48.034;11.186;2023-01-19T08:05:50;22.42;;;14.60;;
32228;SDS011;18717;48.034;11.186;2023-01-19T08:08:19;22.40;;;14.40;;
32228;SDS011;18717;48.034;11.186;2023-01-19T08:10:48;24.98;;;13.88;;
32228;SDS011;18717;48.034;11.186;2023-01-19T08:13:17;19.90;;;13.98;;
32228;SDS011;18717;48.034;11.186;2023-01-19T08:15:47;22.05;;;15.13;;
32228;SDS011;18717;48.034;11.186;2023-01-19T08:18:18;28.40;;;15.05;;
32228;SDS011;18717;48.034;11.186;2023-01-19T08:20:46;24.75;;;13.68;;
32228;SDS011;18717;48.034;11.186;2023-01-19T08:23:14;30.77;;;15.95;;
32228;SDS011;18717;48.034;11.186;2023-01-19T08:25:43;32.35;;;14.95;;
32228;SDS011;18717;48.034;11.186;2023-01-19T08:28:12;23.20;;;14.57;;
32228;SDS011;18717;48.034;11.186;2023-01-19T08:30:41;16.77;;;11.10;;
32228;SDS011;18717;48.034;11.186;2023-01-19T08:33:10;22.25;;;13.35;;
32228;SDS011;18717;48.034;11.186;2023-01-19T08:35:41;21.15;;;13.35;;
32228;SDS011;18717;48.034;11.186;2023-01-19T08:38:10;22.73;;;12.90;;
32228;SDS011;18717;48.034;11.186;2023-01-19T08:40:39;19.73;;;13.80;;
32228;SDS011;18717;48.034;11.186;2023-01-19T08:43:09;23.70;;;14.02;;
32228;SDS011;18717;48.034;11.186;2023-01-19T08:45:39;19.92;;;12.55;;
32228;SDS011;18717;48.034;11.186;2023-01-19T08:48:14;21.95;;;13.48;;
32228;SDS011;18717;48.034;11.186;2023-01-19T08:50:45;18.05;;;12.27;;
32228;SDS011;18717;48.034;11.186;2023-01-19T08:53:14;16.70;;;12.82;;
32228;SDS011;18717;48.034;11.186;2023-01-19T08:55:43;16.70;;;11.48;;
32228;SDS011;18717;48.034;11.186;2023-01-19T08:58:12;21.40;;;13.48;;
32228;SDS011;18717;48.034;11.186;2023-01-19T09:00:40;17.13;;;13.20;;
32228;SDS011;18717;48.034;11.186;2023-01-19T09:03:10;24.10;;;13.82;;
32228;SDS011;18717;48.034;11.186;2023-01-19T09:05:39;24.70;;;14.85;;
32228;SDS011;18717;48.034;11.186;2023-01-19T09:08:10;20.80;;;12.95;;
32228;SDS011;18717;48.034;11.186;2023-01-19T09:10:43;23.85;;;14.68;;
32228;SDS011;18717;48.034;11.186;2023-01-19T09:13:11;16.67;;;12.80;;
32228;SDS011;18717;48.034;11.186;2023-01-19T09:15:40;25.25;;;15.02;;
32228;SDS011;18717;48.034;11.186;2023-01-19T09:18:09;19.92;;;13.82;;
32228;SDS011;18717;48.034;11.186;2023-01-19T09:23:40;20.13;;;12.95;;
32228;SDS011;18717;48.034;11.186;2023-01-19T09:26:09;24.63;;;13.30;;
32228;SDS011;18717;48.034;11.186;2023-01-19T09:28:37;20.77;;;12.45;;
32228;SDS011;18717;48.034;11.186;2023-01-19T09:31:05;17.00;;;11.68;;
32228;SDS011;18717;48.034;11.186;2023-01-19T09:33:34;15.30;;;11.73;;
32228;SDS011;18717;48.034;11.186;2023-01-19T09:36:02;16.30;;;11.60;;
32228;SDS011;18717;48.034;11.186;2023-01-19T09:38:30;15.10;;;11.88;;
32228;SDS011;18717;48.034;11.186;2023-01-19T09:41:00;17.90;;;11.48;;
32228;SDS011;18717;48.034;11.186;2023-01-19T09:43:34;16.10;;;11.23;;
32228;SDS011;18717;48.034;11.186;2023-01-19T09:46:04;15.48;;;11.68;;
32228;SDS011;18717;48.034;11.186;2023-01-19T09:48:41;17.05;;;11.98;;
32228;SDS011;18717;48.034;11.186;2023-01-19T09:51:12;14.23;;;10.80;;
32228;SDS011;18717;48.034;11.186;2023-01-19T09:53:45;16.42;;;11.57;;
32228;SDS011;18717;48.034;11.186;2023-01-19T09:56:26;19.02;;;10.55;;
32228;SDS011;18717;48.034;11.186;2023-01-19T09:58:54;18.90;;;12.30;;
32228;SDS011;18717;48.034;11.186;2023-01-19T10:01:33;21.95;;;13.18;;
32228;SDS011;18717;48.034;11.186;2023-01-19T10:04:15;19.50;;;12.15;;
32228;SDS011;18717;48.034;11.186;2023-01-19T10:06:58;19.42;;;12.70;;
32228;SDS011;18717;48.034;11.186;2023-01-19T10:09:33;19.50;;;13.02;;
32228;SDS011;18717;48.034;11.186;2023-01-19T10:12:09;19.95;;;13.18;;
32228;SDS011;18717;48.034;11.186;2023-01-19T10:14:45;18.10;;;12.98;;
32228;SDS011;18717;48.034;11.186;2023-01-19T10:17:18;21.10;;;13.05;;
32228;SDS011;18717;48.034;11.186;2023-01-19T10:19:52;21.85;;;13.65;;
32228;SDS011;18717;48.034;11.186;2023-01-19T10:22:23;18.33;;;13.43;;
32228;SDS011;18717;48.034;11.186;2023-01-19T10:24:52;13.73;;;11.50;;
32228;SDS011;18717;48.034;11.186;2023-01-19T10:27:25;20.83;;;14.10;;
32228;SDS011;18717;48.034;11.186;2023-01-19T10:29:55;19.48;;;12.35;;
32228;SDS011;18717;48.034;11.186;2023-01-19T10:32:24;22.85;;;11.85;;
32228;SDS011;18717;48.034;11.186;2023-01-19T10:37:27;17.15;;;12.30;;
32228;SDS011;18717;48.034;11.186;2023-01-19T10:39:58;19.38;;;12.38;;
32228;SDS011;18717;48.034;11.186;2023-01-19T10:42:30;15.25;;;11.85;;
32228;SDS011;18717;48.034;11.186;2023-01-19T10:44:58;15.80;;;12.43;;
32228;SDS011;18717;48.034;11.186;2023-01-19T10:47:29;15.43;;;12.35;;
32228;SDS011;18717;48.034;11.186;2023-01-19T10:49:58;19.83;;;11.32;;
32228;SDS011;18717;48.034;11.186;2023-01-19T10:52:28;14.88;;;11.38;;
32228;SDS011;18717;48.034;11.186;2023-01-19T10:54:58;16.67;;;11.80;;
32228;SDS011;18717;48.034;11.186;2023-01-19T10:57:30;15.55;;;10.88;;
32228;SDS011;18717;48.034;11.186;2023-01-19T11:02:27;14.75;;;11.80;;
32228;SDS011;18717;48.034;11.186;2023-01-19T11:04:57;15.60;;;11.93;;
32228;SDS011;18717;48.034;11.186;2023-01-19T11:07:27;16.83;;;11.68;;
32228;SDS011;18717;48.034;11.186;2023-01-19T11:10:18;16.90;;;12.60;;
32228;SDS011;18717;48.034;11.186;2023-01-19T11:12:54;15.27;;;12.02;;
32228;SDS011;18717;48.034;11.186;2023-01-19T11:15:34;16.20;;;11.23;;
32228;SDS011;18717;48.034;11.186;2023-01-19T11:18:16;15.43;;;10.88;;
32228;SDS011;18717;48.034;11.186;2023-01-19T11:20:50;14.30;;;11.57;;
32228;SDS011;18717;48.034;11.186;2023-01-19T11:23:23;15.73;;;10.75;;
32228;SDS011;18717;48.034;11.186;2023-01-19T11:25:55;16.55;;;10.50;;
32228;SDS011;18717;48.034;11.186;2023-01-19T11:28:36;13.63;;;10.48;;
32228;SDS011;18717;48.034;11.186;2023-01-19T11:31:16;16.63;;;11.57;;
32228;SDS011;18717;48.034;11.186;2023-01-19T11:33:47;14.57;;;10.75;;
32228;SDS011;18717;48.034;11.186;2023-01-19T11:36:17;12.60;;;10.90;;
32228;SDS011;18717;48.034;11.186;2023-01-19T11:38:47;13.25;;;10.55;;
32228;SDS011;18717;48.034;11.186;2023-01-19T11:41:17;11.63;;;9.77;;
32228;SDS011;18717;48.034;11.186;2023-01-19T11:43:54;11.98;;;10.75;;
32228;SDS011;18717;48.034;11.186;2023-01-19T12:01:01;10.82;;;9.73;;
32228;SDS011;18717;48.034;11.186;2023-01-19T12:03:34;11.90;;;10.63;;
32228;SDS011;18717;48.034;11.186;2023-01-19T12:06:08;10.98;;;9.93;;
32228;SDS011;18717;48.034;11.186;2023-01-19T12:08:44;13.95;;;9.63;;
32228;SDS011;18717;48.034;11.186;2023-01-19T12:28:05;10.70;;;9.65;;
32228;SDS011;18717;48.034;11.186;2023-01-19T12:30:39;8.57;;;7.88;;
32228;SDS011;18717;48.034;11.186;2023-01-19T12:33:21;9.32;;;8.48;;
32228;SDS011;18717;48.034;11.186;2023-01-19T12:36:01;9.45;;;8.75;;
32228;SDS011;18717;48.034;11.186;2023-01-19T12:38:40;9.70;;;7.68;;
32228;SDS011;18717;48.034;11.186;2023-01-19T12:41:27;8.88;;;8.18;;
32228;SDS011;18717;48.034;11.186;2023-01-19T12:44:13;9.73;;;8.82;;
32228;SDS011;18717;48.034;11.186;2023-01-19T12:46:45;9.60;;;8.70;;
32228;SDS011;18717;48.034;11.186;2023-01-19T12:49:18;9.10;;;8.10;;
32228;SDS011;18717;48.034;11.186;2023-01-19T12:51:52;10.23;;;9.15;;
32228;SDS011;18717;48.034;11.186;2023-01-19T12:54:26;9.27;;;8.40;;
32228;SDS011;18717;48.034;11.186;2023-01-19T12:56:57;8.38;;;7.57;;
32228;SDS011;18717;48.034;11.186;2023-01-19T12:59:27;10.32;;;9.23;;
32228;SDS011;18717;48.034;11.186;2023-01-19T13:05:08;11.13;;;8.60;;
32228;SDS011;18717;48.034;11.186;2023-01-19T13:11:11;8.90;;;8.00;;
32228;SDS011;18717;48.034;11.186;2023-01-19T13:13:43;8.52;;;7.80;;
32228;SDS011;18717;48.034;11.186;2023-01-19T13:19:28;8.50;;;7.70;;
32228;SDS011;18717;48.034;11.186;2023-01-19T13:22:47;8.18;;;7.45;;
32228;SDS011;18717;48.034;11.186;2023-01-19T13:25:25;8.93;;;7.60;;
32228;SDS011;18717;48.034;11.186;2023-01-19T13:27:58;8.93;;;8.05;;
32228;SDS011;18717;48.034;11.186;2023-01-19T13:30:27;7.68;;;7.13;;
32228;SDS011;18717;48.034;11.186;2023-01-19T13:33:05;8.30;;;7.60;;
32228;SDS011;18717;48.034;11.186;2023-01-19T13:35:36;8.23;;;7.50;;
32228;SDS011;18717;48.034;11.186;2023-01-19T13:38:04;8.75;;;7.95;;
32228;SDS011;18717;48.034;11.186;2023-01-19T13:40:35;10.98;;;8.48;;
32228;SDS011;18717;48.034;11.186;2023-01-19T13:43:07;9.55;;;8.75;;
32228;SDS011;18717;48.034;11.186;2023-01-19T13:45:45;9.63;;;8.77;;
32228;SDS011;18717;48.034;11.186;2023-01-19T13:48:19;9.35;;;8.50;;
32228;SDS011;18717;48.034;11.186;2023-01-19T13:51:02;10.05;;;8.27;;
32228;SDS011;18717;48.034;11.186;2023-01-19T13:53:32;9.48;;;8.57;;
32228;SDS011;18717;48.034;11.186;2023-01-19T13:56:07;9.27;;;8.50;;
32228;SDS011;18717;48.034;11.186;2023-01-19T13:58:44;10.35;;;9.35;;
32228;SDS011;18717;48.034;11.186;2023-01-19T14:05:47;9.18;;;8.27;;
32228;SDS011;18717;48.034;11.186;2023-01-19T14:08:16;9.45;;;7.97;;
32228;SDS011;18717;48.034;11.186;2023-01-19T14:10:58;10.32;;;9.25;;
32228;SDS011;18717;48.034;11.186;2023-01-19T14:17:22;9.30;;;8.13;;
32228;SDS011;18717;48.034;11.186;2023-01-19T14:20:26;10.18;;;9.23;;
32228;SDS011;18717;48.034;11.186;2023-01-19T14:22:56;9.65;;;8.70;;
32228;SDS011;18717;48.034;11.186;2023-01-19T14:25:27;9.20;;;8.27;;
32228;SDS011;18717;48.034;11.186;2023-01-19T14:30:52;9.13;;;8.23;;
32228;SDS011;18717;48.034;11.186;2023-01-19T14:33:39;10.43;;;8.00;;
32228;SDS011;18717;48.034;11.186;2023-01-19T14:36:19;9.73;;;8.27;;
32228;SDS011;18717;48.034;11.186;2023-01-19T14:38:53;13.73;;;8.02;;
32228;SDS011;18717;48.034;11.186;2023-01-19T14:41:23;10.32;;;9.27;;
32228;SDS011;18717;48.034;11.186;2023-01-19T14:43:53;9.95;;;8.88;;
32228;SDS011;18717;48.034;11.186;2023-01-19T14:46:22;10.38;;;9.32;;
32228;SDS011;18717;48.034;11.186;2023-01-19T14:48:54;10.60;;;9.20;;
32228;SDS011;18717;48.034;11.186;2023-01-19T14:51:27;10.18;;;9.13;;
32228;SDS011;18717;48.034;11.186;2023-01-19T14:53:56;11.00;;;9.00;;
32228;SDS011;18717;48.034;11.186;2023-01-19T14:56:26;11.38;;;10.23;;
32228;SDS011;18717;48.034;11.186;2023-01-19T14:58:56;13.65;;;9.48;;
32228;SDS011;18717;48.034;11.186;2023-01-19T15:01:25;11.70;;;9.65;;
32228;SDS011;18717;48.034;11.186;2023-01-19T15:03:58;9.90;;;9.00;;
32228;SDS011;18717;48.034;11.186;2023-01-19T15:06:26;10.60;;;9.57;;
32228;SDS011;18717;48.034;11.186;2023-01-19T15:08:54;10.63;;;9.73;;
32228;SDS011;18717;48.034;11.186;2023-01-19T15:11:23;11.82;;;9.65;;
32228;SDS011;18717;48.034;11.186;2023-01-19T15:13:52;10.48;;;9.48;;
32228;SDS011;18717;48.034;11.186;2023-01-19T15:16:21;10.45;;;9.35;;
32228;SDS011;18717;48.034;11.186;2023-01-19T15:18:49;11.73;;;9.02;;
32228;SDS011;18717;48.034;11.186;2023-01-19T15:21:19;15.63;;;9.38;;
32228;SDS011;18717;48.034;11.186;2023-01-19T15:23:49;12.25;;;8.13;;
32228;SDS011;18717;48.034;11.186;2023-01-19T15:26:17;10.77;;;9.80;;
32228;SDS011;18717;48.034;11.186;2023-01-19T15:28:47;13.48;;;9.57;;
32228;SDS011;18717;48.034;11.186;2023-01-19T15:31:16;9.93;;;9.00;;
32228;SDS011;18717;48.034;11.186;2023-01-19T15:33:45;10.48;;;9.27;;
32228;SDS011;18717;48.034;11.186;2023-01-19T15:36:14;10.23;;;9.18;;
32228;SDS011;18717;48.034;11.186;2023-01-19T15:38:45;9.73;;;8.60;;
32228;SDS011;18717;48.034;11.186;2023-01-19T15:41:17;10.63;;;9.68;;
32228;SDS011;18717;48.034;11.186;2023-01-19T15:43:48;20.75;;;9.18;;
32228;SDS011;18717;48.034;11.186;2023-01-19T15:46:17;9.35;;;8.45;;
32228;SDS011;18717;48.034;11.186;2023-01-19T15:48:46;11.80;;;8.73;;
32228;SDS011;18717;48.034;11.186;2023-01-19T15:51:15;9.32;;;8.43;;
32228;SDS011;18717;48.034;11.186;2023-01-19T15:53:46;9.43;;;8.45;;
32228;SDS011;18717;48.034;11.186;2023-01-19T15:56:14;9.75;;;8.82;;